Terminal Aerodrome Forecast
Issued by NWS

Home | Current Version | Previous Version | Text Only | Print | Product List | Glossary On
Versions: 1 2 3 4 5 6 7 8 9 10 11 12 13 14 15 16
531
FTAK31 PAJN 170204 AAA
TAFAKT
TAF AMD
PAKT 170204Z 1702/1724 13008KT 5SM -SHRA BR SCT015 OVC025
      WS020/27025KT
      TEMPO 1702/1705 3SM SHRA BR BKN015 OVC025
     FM170600 15008KT P6SM -SHRA SCT025 OVC035 WS020/27025KT
     FM171800 15007KT P6SM -SHRA SCT035 OVC040
      AMD LTD TO CLD VIS AND WIND 1706/1715=

USA.gov is the U.S. government's official web portal to all federal, state and local government web resources and services.